createdAt,value
2023-05-01T00:01:09.137Z,100.00
2023-05-01T00:03:40.692Z,100.00
2023-05-01T00:06:11.043Z,100.00
2023-05-01T00:08:40.865Z,100.00
2023-05-01T00:11:12.805Z,100.00
2023-05-01T00:13:42.463Z,100.00
2023-05-01T00:16:13.050Z,100.00
2023-05-01T00:18:44.278Z,100.00
2023-05-01T00:21:14.525Z,100.00
2023-05-01T00:23:44.456Z,100.00
2023-05-01T00:26:14.613Z,100.00
2023-05-01T00:28:48.039Z,100.00
2023-05-01T00:31:18.646Z,100.00
2023-05-01T00:33:51.317Z,100.00
2023-05-01T00:36:21.812Z,100.00
2023-05-01T00:38:51.520Z,100.00
2023-05-01T00:41:22.395Z,100.00
2023-05-01T00:43:52.232Z,100.00
2023-05-01T00:46:23.379Z,100.00
2023-05-01T00:48:55.278Z,100.00
2023-05-01T00:51:27.650Z,100.00
2023-05-01T00:53:57.595Z,100.00
2023-05-01T00:56:28.322Z,100.00
2023-05-01T00:58:58.196Z,100.00
2023-05-01T01:01:29.077Z,100.00
2023-05-01T01:04:00.671Z,100.00
2023-05-01T01:06:35.071Z,100.00
2023-05-01T01:09:11.842Z,100.00
2023-05-01T01:11:47.042Z,100.00
2023-05-01T01:14:19.970Z,100.00
2023-05-01T01:16:56.649Z,100.00
2023-05-01T01:19:50.949Z,100.00
2023-05-01T01:22:24.107Z,100.00
2023-05-01T01:25:16.209Z,100.00
2023-05-01T01:28:13.350Z,100.00
2023-05-01T01:30:57.075Z,100.00
2023-05-01T01:33:43.502Z,100.00
2023-05-01T01:36:17.447Z,100.00
2023-05-01T01:38:48.452Z,100.00
2023-05-01T01:41:21.578Z,100.00
2023-05-01T01:43:54.991Z,100.00
2023-05-01T01:46:25.599Z,100.00
2023-05-01T01:48:59.143Z,100.00
2023-05-01T01:51:29.758Z,100.00
2023-05-01T01:54:02.191Z,100.00
2023-05-01T01:56:33.430Z,100.00
2023-05-01T01:59:04.730Z,100.00
2023-05-01T02:01:35.939Z,100.00
2023-05-01T02:04:09.098Z,100.00
2023-05-01T02:06:39.932Z,100.00
2023-05-01T02:09:11.300Z,100.00
2023-05-01T02:11:42.567Z,100.00
2023-05-01T02:14:13.446Z,100.00
2023-05-01T02:16:44.175Z,100.00
2023-05-01T02:19:16.358Z,100.00
2023-05-01T02:21:47.183Z,100.00
2023-05-01T02:24:17.977Z,100.00
2023-05-01T02:26:51.171Z,100.00
2023-05-01T02:29:21.543Z,100.00
2023-05-01T02:31:51.256Z,100.00
2023-05-01T02:34:23.676Z,100.00
2023-05-01T02:36:53.590Z,100.00
2023-05-01T02:39:24.382Z,100.00
2023-05-01T02:41:55.403Z,100.00
2023-05-01T02:44:26.625Z,100.00
2023-05-01T02:46:57.954Z,100.00
2023-05-01T02:49:31.978Z,100.00
2023-05-01T02:52:02.620Z,100.00
2023-05-01T02:54:34.560Z,100.00
2023-05-01T02:57:05.723Z,100.00
2023-05-01T02:59:36.346Z,100.00
2023-05-01T03:02:06.516Z,100.00
2023-05-01T03:04:38.466Z,100.00
2023-05-01T03:07:09.803Z,100.00
2023-05-01T03:09:40.705Z,100.00
2023-05-01T03:12:10.553Z,100.00
2023-05-01T03:14:40.797Z,100.00
2023-05-01T03:17:11.455Z,100.00
2023-05-01T03:19:43.381Z,100.00
2023-05-01T03:22:13.214Z,100.00
2023-05-01T03:24:43.987Z,100.00
2023-05-01T03:27:13.933Z,100.00
2023-05-01T03:29:44.685Z,100.00
2023-05-01T03:32:15.352Z,100.00
2023-05-01T03:34:47.490Z,100.00
2023-05-01T03:37:18.397Z,100.00
2023-05-01T03:39:48.956Z,100.00
2023-05-01T03:42:37.412Z,100.00
2023-05-01T03:45:15.127Z,100.00
2023-05-01T03:47:45.640Z,100.00
2023-05-01T03:50:18.098Z,100.00
2023-05-01T03:52:50.384Z,100.00
2023-05-01T03:55:21.560Z,100.00
2023-05-01T03:57:53.275Z,100.00
2023-05-01T04:00:24.657Z,100.00
2023-05-01T04:02:54.934Z,100.00
2023-05-01T04:05:29.136Z,100.00
2023-05-01T04:08:04.722Z,100.00
2023-05-01T04:10:35.068Z,100.00
2023-05-01T04:13:07.874Z,100.00
2023-05-01T04:15:38.848Z,100.00
2023-05-01T04:18:08.788Z,100.00
2023-05-01T04:20:41.937Z,100.00
2023-05-01T04:23:13.384Z,100.00
2023-05-01T04:25:43.615Z,100.00
2023-05-01T04:28:17.263Z,100.00
2023-05-01T04:30:47.965Z,100.00
2023-05-01T04:33:18.148Z,100.00
2023-05-01T04:35:50.483Z,100.00
2023-05-01T04:38:20.592Z,100.00
2023-05-01T04:40:52.959Z,100.00
2023-05-01T04:43:22.919Z,100.00
2023-05-01T04:45:53.516Z,100.00
2023-05-01T04:48:23.933Z,100.00
2023-05-01T04:50:56.612Z,100.00
2023-05-01T04:53:28.981Z,100.00
2023-05-01T04:55:59.641Z,100.00
2023-05-01T04:58:30.412Z,100.00
2023-05-01T05:01:05.737Z,100.00
2023-05-01T05:03:36.021Z,100.00
2023-05-01T05:06:08.053Z,100.00
2023-05-01T05:08:38.654Z,100.00
2023-05-01T05:11:13.732Z,100.00
2023-05-01T05:14:04.398Z,100.00
2023-05-01T05:16:36.008Z,100.00
2023-05-01T05:19:06.410Z,99.03
2023-05-01T05:21:42.494Z,98.13
2023-05-01T05:24:12.487Z,97.64
2023-05-01T05:26:43.214Z,97.33
2023-05-01T05:29:13.932Z,94.99
2023-05-01T05:31:44.317Z,94.68
2023-05-01T05:34:14.369Z,94.09
2023-05-01T05:36:46.219Z,92.34
2023-05-01T05:39:17.621Z,91.95
2023-05-01T05:41:49.580Z,88.39
2023-05-01T05:44:20.126Z,87.16
2023-05-01T05:46:50.689Z,87.20
2023-05-01T05:49:30.274Z,86.50
2023-05-01T05:52:02.232Z,86.21
2023-05-01T05:54:32.500Z,86.60
2023-05-01T05:57:03.590Z,84.14
2023-05-01T05:59:34.965Z,83.97
2023-05-01T06:02:05.493Z,80.88
2023-05-01T06:04:35.834Z,77.26
2023-05-01T06:07:08.464Z,77.35
2023-05-01T06:09:38.531Z,76.25
2023-05-01T06:12:09.669Z,76.06
2023-05-01T06:14:41.398Z,75.50
2023-05-01T06:17:12.566Z,72.68
2023-05-01T06:19:42.385Z,73.40
2023-05-01T06:22:15.702Z,67.46
2023-05-01T06:25:01.547Z,62.51
2023-05-01T06:27:33.760Z,60.29
2023-05-01T06:32:57.457Z,57.56
2023-05-01T06:35:43.173Z,56.26
2023-05-01T06:38:14.963Z,56.40
2023-05-01T06:40:47.432Z,57.67
2023-05-01T06:43:31.181Z,57.82
2023-05-01T06:46:04.222Z,60.57
2023-05-01T06:48:43.540Z,61.55
2023-05-01T06:51:33.265Z,59.30
2023-05-01T06:54:06.890Z,61.23
2023-05-01T06:56:49.504Z,60.76
2023-05-01T06:59:28.156Z,60.50
2023-05-01T07:02:10.423Z,59.80
2023-05-01T07:05:08.141Z,59.33
2023-05-01T07:08:00.867Z,59.66
2023-05-01T07:10:53.330Z,59.50
2023-05-01T07:13:26.189Z,58.45
2023-05-01T07:16:00.503Z,58.78
2023-05-01T07:18:36.508Z,59.83
2023-05-01T07:21:07.118Z,58.34
2023-05-01T07:23:38.817Z,58.53
2023-05-01T07:26:12.735Z,59.83
2023-05-01T07:28:43.342Z,57.70
2023-05-01T07:31:13.799Z,57.86
2023-05-01T07:33:44.114Z,58.09
2023-05-01T07:36:14.534Z,58.53
2023-05-01T07:38:45.574Z,57.88
2023-05-01T07:41:17.707Z,58.05
2023-05-01T07:43:47.805Z,57.62
2023-05-01T07:46:19.117Z,58.03
2023-05-01T07:48:49.894Z,57.81
2023-05-01T07:51:22.312Z,58.17
2023-05-01T07:53:55.798Z,54.61
2023-05-01T07:56:28.087Z,54.81
2023-05-01T07:59:00.236Z,54.85
2023-05-01T08:01:31.348Z,54.37
2023-05-01T08:04:03.959Z,54.28
2023-05-01T08:06:34.846Z,54.08
2023-05-01T08:09:06.065Z,54.38
2023-05-01T08:11:38.055Z,54.03
2023-05-01T08:14:09.734Z,53.21
2023-05-01T08:16:40.200Z,54.48
2023-05-01T08:19:11.082Z,52.25
2023-05-01T08:21:42.174Z,52.87
2023-05-01T08:24:15.826Z,52.93
2023-05-01T08:26:50.004Z,51.67
2023-05-01T08:29:21.535Z,51.11
2023-05-01T08:31:53.894Z,50.61
2023-05-01T08:34:24.917Z,49.20
2023-05-01T08:36:55.366Z,51.27
2023-05-01T08:39:25.349Z,52.35
2023-05-01T08:41:58.905Z,50.70
2023-05-01T08:44:30.161Z,51.13
2023-05-01T08:47:08.595Z,49.64
2023-05-01T08:49:39.645Z,49.61
2023-05-01T08:52:10.283Z,49.32
2023-05-01T08:54:41.454Z,50.51
2023-05-01T08:57:14.379Z,49.92
2023-05-01T08:59:46.648Z,49.96
2023-05-01T09:02:17.820Z,48.75
2023-05-01T09:04:48.822Z,48.07
2023-05-01T09:07:19.349Z,48.63
2023-05-01T09:09:49.476Z,48.16
2023-05-01T09:12:26.461Z,48.89
2023-05-01T09:14:56.968Z,50.02
2023-05-01T09:17:46.630Z,48.02
2023-05-01T09:20:20.813Z,46.65
2023-05-01T09:22:52.131Z,47.33
2023-05-01T09:25:21.952Z,46.61
2023-05-01T09:27:54.098Z,45.72
2023-05-01T09:30:34.146Z,45.89
2023-05-01T09:33:08.128Z,45.65
2023-05-01T09:35:50.553Z,44.86
2023-05-01T09:38:22.146Z,44.51
2023-05-01T09:40:52.450Z,46.25
2023-05-01T09:43:31.894Z,44.65
2023-05-01T09:46:13.261Z,44.68
2023-05-01T09:48:56.739Z,43.17
2023-05-01T09:51:27.360Z,45.15
2023-05-01T09:53:58.367Z,43.47
2023-05-01T09:56:28.465Z,43.26
2023-05-01T09:59:00.642Z,42.74
2023-05-01T10:01:48.823Z,42.39
2023-05-01T10:04:19.815Z,44.25
2023-05-01T10:06:49.928Z,45.72
2023-05-01T10:09:28.764Z,42.57
2023-05-01T10:12:07.966Z,43.18
2023-05-01T10:14:55.628Z,42.23
2023-05-01T10:17:26.447Z,42.15
2023-05-01T10:19:57.183Z,41.26
2023-05-01T10:22:28.801Z,43.84
2023-05-01T10:24:59.866Z,43.33
2023-05-01T10:27:29.966Z,41.21
2023-05-01T10:30:05.335Z,41.36
2023-05-01T10:32:35.699Z,41.50
2023-05-01T10:35:09.485Z,41.92
2023-05-01T10:37:42.464Z,41.98
2023-05-01T10:40:31.164Z,42.91
2023-05-01T10:43:28.949Z,42.63
2023-05-01T10:46:15.845Z,40.63
2023-05-01T10:48:57.006Z,39.06
2023-05-01T10:51:28.456Z,37.93
2023-05-01T10:54:19.671Z,38.32
2023-05-01T10:56:50.142Z,39.99
2023-05-01T10:59:20.286Z,39.33
2023-05-01T11:01:52.183Z,39.82
2023-05-01T11:04:56.202Z,39.34
2023-05-01T11:07:28.706Z,41.29
2023-05-01T11:09:59.275Z,41.29
2023-05-01T11:12:47.930Z,39.88
2023-05-01T11:15:27.388Z,41.13
2023-05-01T11:17:58.036Z,40.45
2023-05-01T11:20:46.463Z,40.40
2023-05-01T11:23:22.078Z,38.73
2023-05-01T11:25:52.099Z,39.38
2023-05-01T11:28:25.699Z,38.19
2023-05-01T11:30:55.840Z,39.43
2023-05-01T11:33:28.815Z,39.34
2023-05-01T11:36:00.103Z,38.49
2023-05-01T11:38:32.147Z,39.07
2023-05-01T11:41:04.373Z,37.52
2023-05-01T11:43:34.571Z,37.03
2023-05-01T11:46:04.674Z,39.45
2023-05-01T11:48:35.404Z,37.41
2023-05-01T11:51:13.986Z,37.98
2023-05-01T11:53:45.937Z,38.12
2023-05-01T11:58:55.739Z,37.22
2023-05-01T12:01:35.132Z,35.79
2023-05-01T12:04:05.972Z,37.53
2023-05-01T12:06:44.111Z,38.22
2023-05-01T12:09:18.180Z,36.97
2023-05-01T12:11:52.727Z,36.50
2023-05-01T12:14:24.776Z,36.92
2023-05-01T12:16:54.722Z,36.65
2023-05-01T12:19:25.469Z,35.93
2023-05-01T12:22:06.858Z,36.25
2023-05-01T12:24:39.173Z,35.97
2023-05-01T12:27:11.676Z,34.92
2023-05-01T12:29:42.675Z,33.67
2023-05-01T12:32:12.729Z,33.41
2023-05-01T12:34:43.405Z,33.84
2023-05-01T12:37:13.283Z,33.81
2023-05-01T12:39:46.198Z,33.57
2023-05-01T12:42:17.205Z,37.00
2023-05-01T12:44:47.626Z,34.42
2023-05-01T12:47:17.797Z,34.88
2023-05-01T12:49:48.205Z,34.63
2023-05-01T12:52:28.105Z,34.98
2023-05-01T12:55:06.030Z,35.78
2023-05-01T12:57:37.125Z,34.55
2023-05-01T13:00:09.904Z,34.66
2023-05-01T13:02:41.573Z,33.87
2023-05-01T13:05:17.644Z,32.67
2023-05-01T13:07:51.654Z,32.42
2023-05-01T13:10:35.589Z,33.14
2023-05-01T13:13:05.975Z,32.32
2023-05-01T13:15:36.863Z,33.05
2023-05-01T13:18:07.201Z,34.58
2023-05-01T13:20:43.518Z,33.99
2023-05-01T13:23:15.482Z,32.88
2023-05-01T13:25:47.951Z,33.12
2023-05-01T13:28:22.233Z,32.27
2023-05-01T13:30:52.624Z,32.56
2023-05-01T13:33:22.701Z,31.88
2023-05-01T13:35:53.065Z,30.94
2023-05-01T13:38:24.997Z,30.37
2023-05-01T13:40:59.201Z,29.47
2023-05-01T13:43:29.583Z,28.01
2023-05-01T13:46:00.886Z,28.44
2023-05-01T13:48:32.408Z,28.73
2023-05-01T13:51:02.772Z,28.44
2023-05-01T13:53:32.841Z,29.90
2023-05-01T13:56:05.223Z,30.83
2023-05-01T13:58:35.290Z,29.71
2023-05-01T14:01:16.809Z,29.23
2023-05-01T14:03:47.133Z,29.42
2023-05-01T14:06:19.274Z,28.54
2023-05-01T14:08:54.687Z,28.30
2023-05-01T14:11:27.184Z,27.60
2023-05-01T14:14:03.858Z,27.83
2023-05-01T14:16:34.496Z,28.07
2023-05-01T14:19:06.591Z,27.62
2023-05-01T14:21:42.217Z,29.15
2023-05-01T14:24:12.093Z,28.37
2023-05-01T14:26:45.206Z,28.09
2023-05-01T14:29:20.692Z,27.55
2023-05-01T14:31:51.777Z,28.84
2023-05-01T14:34:22.058Z,29.83
2023-05-01T14:36:52.552Z,28.73
2023-05-01T14:39:22.512Z,30.54
2023-05-01T14:41:56.331Z,30.47
2023-05-01T14:44:28.312Z,31.43
2023-05-01T14:46:59.292Z,31.67
2023-05-01T14:49:29.981Z,31.68
2023-05-01T14:52:00.345Z,32.52
2023-05-01T14:54:30.431Z,33.67
2023-05-01T14:57:04.202Z,33.23
2023-05-01T14:59:34.050Z,32.47
2023-05-01T15:02:04.479Z,34.42
2023-05-01T15:04:36.380Z,33.27
2023-05-01T15:07:06.886Z,33.87
2023-05-01T15:09:36.631Z,35.82
2023-05-01T15:12:08.170Z,35.73
2023-05-01T15:14:38.045Z,36.03
2023-05-01T15:17:08.506Z,36.56
2023-05-01T15:19:38.326Z,34.12
2023-05-01T15:22:08.634Z,33.41
2023-05-01T15:24:39.528Z,34.09
2023-05-01T15:27:11.337Z,35.04
2023-05-01T15:29:41.251Z,32.90
2023-05-01T15:32:12.875Z,33.04
2023-05-01T15:34:43.096Z,32.25
2023-05-01T15:37:13.557Z,32.98
2023-05-01T15:39:43.682Z,32.92
2023-05-01T15:42:15.528Z,33.79
2023-05-01T15:44:45.409Z,32.96
2023-05-01T15:47:16.261Z,33.38
2023-05-01T15:49:46.594Z,34.80
2023-05-01T15:52:17.140Z,34.43
2023-05-01T15:54:47.782Z,34.32
2023-05-01T15:57:22.567Z,34.47
2023-05-01T15:59:56.207Z,35.51
2023-05-01T16:02:27.419Z,35.51
2023-05-01T16:04:57.696Z,35.63
2023-05-01T16:07:30.385Z,34.75
2023-05-01T16:10:00.578Z,35.50
2023-05-01T16:12:32.860Z,35.18
2023-05-01T16:15:03.731Z,36.79
2023-05-01T16:17:34.394Z,36.41
2023-05-01T16:20:04.659Z,36.86
2023-05-01T16:22:35.198Z,37.17
2023-05-01T16:25:05.316Z,37.39
2023-05-01T16:27:41.618Z,36.41
2023-05-01T16:30:12.447Z,36.86
2023-05-01T16:32:42.700Z,37.21
2023-05-01T16:35:12.714Z,36.72
2023-05-01T16:37:42.928Z,38.44
2023-05-01T16:40:17.197Z,38.72
2023-05-01T16:42:53.749Z,38.69
2023-05-01T16:45:23.776Z,39.06
2023-05-01T16:47:56.738Z,39.11
2023-05-01T16:50:28.107Z,40.08
2023-05-01T16:53:00.115Z,41.29
2023-05-01T16:55:30.601Z,43.78
2023-05-01T16:58:02.685Z,43.60
2023-05-01T17:00:32.613Z,44.49
2023-05-01T17:03:03.269Z,45.38
2023-05-01T17:05:33.534Z,45.16
2023-05-01T17:08:04.289Z,46.37
2023-05-01T17:10:34.574Z,46.34
2023-05-01T17:13:06.866Z,45.83
2023-05-01T17:15:36.655Z,47.23
2023-05-01T17:18:08.039Z,46.41
2023-05-01T17:20:38.433Z,47.63
2023-05-01T17:23:11.005Z,47.48
2023-05-01T17:25:42.196Z,47.59
2023-05-01T17:28:25.565Z,47.35
2023-05-01T17:30:56.673Z,50.21
2023-05-01T17:33:27.484Z,48.40
2023-05-01T17:35:59.919Z,49.49
2023-05-01T17:38:30.514Z,48.78
2023-05-01T17:41:00.378Z,49.28
2023-05-01T17:43:32.552Z,49.43
2023-05-01T17:46:03.125Z,48.83
2023-05-01T17:48:34.376Z,48.95
2023-05-01T17:51:04.401Z,51.26
2023-05-01T17:53:34.804Z,51.05
2023-05-01T17:56:07.994Z,50.62
2023-05-01T17:58:43.302Z,51.49
2023-05-01T18:01:13.578Z,50.76
2023-05-01T18:03:45.575Z,51.95
2023-05-01T18:06:15.995Z,52.20
2023-05-01T18:08:46.667Z,55.81
2023-05-01T18:11:16.782Z,53.11
2023-05-01T18:13:49.026Z,54.75
2023-05-01T18:16:19.050Z,54.93
2023-05-01T18:18:49.696Z,57.79
2023-05-01T18:21:20.157Z,57.69
2023-05-01T18:23:51.436Z,57.50
2023-05-01T18:26:21.442Z,57.00
2023-05-01T18:28:53.974Z,63.15
2023-05-01T18:31:24.143Z,61.01
2023-05-01T18:33:55.024Z,62.47
2023-05-01T18:36:25.215Z,64.78
2023-05-01T18:38:56.014Z,66.20
2023-05-01T18:41:26.902Z,65.60
2023-05-01T18:44:01.555Z,67.20
2023-05-01T18:46:31.722Z,68.18
2023-05-01T18:49:02.110Z,67.60
2023-05-01T18:51:32.029Z,67.95
2023-05-01T18:54:05.025Z,67.93
2023-05-01T18:56:38.191Z,69.70
2023-05-01T18:59:11.682Z,69.90
2023-05-01T19:01:42.701Z,70.31
2023-05-01T19:04:13.264Z,70.18
2023-05-01T19:06:44.391Z,70.90
2023-05-01T19:09:15.177Z,71.48
2023-05-01T19:11:44.972Z,72.17
2023-05-01T19:14:22.464Z,70.19
2023-05-01T19:16:52.690Z,68.91
2023-05-01T19:19:25.450Z,68.97
2023-05-01T19:21:59.424Z,68.53
2023-05-01T19:24:30.562Z,71.09
2023-05-01T19:27:03.015Z,71.30
2023-05-01T19:29:38.039Z,75.86
2023-05-01T19:32:10.611Z,76.63
2023-05-01T19:34:41.525Z,76.99
2023-05-01T19:37:15.138Z,78.52
2023-05-01T19:39:49.048Z,77.50
2023-05-01T19:42:21.895Z,77.67
2023-05-01T19:44:54.467Z,78.52
2023-05-01T19:47:25.265Z,78.84
2023-05-01T19:49:58.262Z,78.51
2023-05-01T19:52:29.498Z,78.23
2023-05-01T19:55:04.147Z,79.98
2023-05-01T19:57:35.991Z,81.32
2023-05-01T20:00:12.364Z,81.21
2023-05-01T20:02:42.715Z,83.03
2023-05-01T20:05:15.663Z,82.78
2023-05-01T20:07:49.425Z,83.28
2023-05-01T20:10:21.352Z,83.18
2023-05-01T20:12:51.294Z,83.08
2023-05-01T20:15:25.094Z,83.30
2023-05-01T20:17:54.910Z,82.62
2023-05-01T20:20:25.425Z,84.39
2023-05-01T20:23:13.761Z,83.96
2023-05-01T20:25:47.143Z,86.62
2023-05-01T20:28:17.304Z,83.95
2023-05-01T20:30:49.572Z,84.57
2023-05-01T20:33:19.919Z,86.30
2023-05-01T20:35:51.471Z,87.89
2023-05-01T20:38:22.072Z,88.76
2023-05-01T20:40:52.974Z,88.72
2023-05-01T20:43:23.310Z,88.60
2023-05-01T20:45:56.262Z,88.38
2023-05-01T20:48:28.611Z,86.55
2023-05-01T20:51:01.230Z,85.83
2023-05-01T20:53:31.407Z,85.41
2023-05-01T20:56:02.721Z,83.89
2023-05-01T20:58:42.684Z,83.90
2023-05-01T21:01:30.698Z,84.52
2023-05-01T21:04:01.961Z,84.54
2023-05-01T21:06:33.562Z,84.05
2023-05-01T21:09:04.296Z,83.50
2023-05-01T21:11:35.192Z,83.66
2023-05-01T21:14:05.392Z,84.25
2023-05-01T21:16:37.823Z,84.56
2023-05-01T21:19:08.001Z,84.44
2023-05-01T21:21:38.211Z,85.87
2023-05-01T21:24:09.139Z,88.79
2023-05-01T21:26:39.742Z,91.71
2023-05-01T21:29:10.225Z,93.65
2023-05-01T21:31:42.151Z,92.46
2023-05-01T21:34:12.114Z,91.44
2023-05-01T21:36:45.200Z,92.09
2023-05-01T21:39:16.007Z,90.56
2023-05-01T21:41:49.375Z,88.29
2023-05-01T21:44:19.344Z,91.67
2023-05-01T21:46:51.456Z,91.76
2023-05-01T21:49:23.314Z,94.84
2023-05-01T21:51:53.898Z,94.68
2023-05-01T21:54:23.917Z,95.96
2023-05-01T21:56:54.665Z,95.73
2023-05-01T21:59:24.483Z,96.71
2023-05-01T22:01:56.204Z,98.36
2023-05-01T22:04:25.966Z,98.61
2023-05-01T22:06:58.434Z,98.57
2023-05-01T22:09:28.233Z,97.45
2023-05-01T22:11:59.378Z,98.34
2023-05-01T22:14:43.790Z,99.88
2023-05-01T22:17:24.422Z,100.00
2023-05-01T22:19:54.838Z,100.00
2023-05-01T22:22:25.282Z,100.00
2023-05-01T22:24:55.623Z,100.00
2023-05-01T22:27:26.012Z,100.00
2023-05-01T22:29:55.962Z,100.00
2023-05-01T22:32:27.721Z,100.00
2023-05-01T22:34:57.478Z,100.00
2023-05-01T22:37:27.655Z,100.00
2023-05-01T22:39:57.569Z,100.00
2023-05-01T22:42:28.176Z,100.00
2023-05-01T22:44:57.957Z,100.00
2023-05-01T22:47:29.692Z,100.00
2023-05-01T22:49:59.544Z,100.00
2023-05-01T22:52:29.749Z,100.00
2023-05-01T22:54:59.518Z,100.00
2023-05-01T22:57:29.738Z,100.00
2023-05-01T22:59:59.757Z,100.00
2023-05-01T23:02:31.796Z,100.00
2023-05-01T23:05:01.844Z,100.00
2023-05-01T23:07:31.949Z,100.00
2023-05-01T23:10:02.489Z,100.00
2023-05-01T23:12:33.028Z,100.00
2023-05-01T23:15:02.704Z,100.00
2023-05-01T23:17:36.375Z,100.00
2023-05-01T23:20:07.579Z,100.00
2023-05-01T23:22:38.465Z,100.00
2023-05-01T23:25:14.258Z,100.00
2023-05-01T23:27:53.064Z,100.00
2023-05-01T23:30:23.124Z,100.00
2023-05-01T23:32:56.543Z,100.00
2023-05-01T23:35:26.518Z,100.00
2023-05-01T23:37:56.652Z,100.00
2023-05-01T23:40:26.565Z,100.00
2023-05-01T23:42:56.699Z,100.00
2023-05-01T23:45:26.353Z,100.00
2023-05-01T23:47:57.953Z,100.00
2023-05-01T23:50:27.817Z,100.00
2023-05-01T23:52:57.953Z,100.00
2023-05-01T23:55:27.869Z,100.00
2023-05-01T23:57:58.673Z,100.00
